sensor_id;sensor_type;location;lat;lon;timestamp;pressure;altitude;pressure_sealevel;temperature;humidity
52957;BME280;38819;42.692;23.342;2023-07-16T00:00:27;95482.66;;;27.40;57.28
52957;BME280;38819;42.692;23.342;2023-07-16T00:02:52;95486.66;;;27.35;57.61
52957;BME280;38819;42.692;23.342;2023-07-16T00:05:18;95481.03;;;27.28;57.34
52957;BME280;38819;42.692;23.342;2023-07-16T00:07:43;95477.50;;;27.34;57.64
52957;BME280;38819;42.692;23.342;2023-07-16T00:10:09;95486.66;;;27.35;57.52
52957;BME280;38819;42.692;23.342;2023-07-16T00:12:34;95475.16;;;27.37;57.39
52957;BME280;38819;42.692;23.342;2023-07-16T00:15:00;95485.06;;;27.30;57.61
52957;BME280;38819;42.692;23.342;2023-07-16T00:17:25;95481.88;;;27.32;57.26
52957;BME280;38819;42.692;23.342;2023-07-16T00:19:50;95479.06;;;27.14;57.84
52957;BME280;38819;42.692;23.342;2023-07-16T00:22:16;95476.69;;;27.20;57.39
52957;BME280;38819;42.692;23.342;2023-07-16T00:24:41;95473.13;;;27.15;57.60
52957;BME280;38819;42.692;23.342;2023-07-16T00:27:07;95479.84;;;27.18;57.21
52957;BME280;38819;42.692;23.342;2023-07-16T00:29:32;95475.91;;;27.15;57.69
52957;BME280;38819;42.692;23.342;2023-07-16T00:31:57;95486.19;;;27.15;57.43
52957;BME280;38819;42.692;23.342;2023-07-16T00:34:23;95477.06;;;27.18;57.69
52957;BME280;38819;42.692;23.342;2023-07-16T00:36:48;95480.66;;;27.18;57.42
52957;BME280;38819;42.692;23.342;2023-07-16T00:39:14;95474.72;;;27.16;57.41
52957;BME280;38819;42.692;23.342;2023-07-16T00:41:39;95481.03;;;27.13;57.71
52957;BME280;38819;42.692;23.342;2023-07-16T00:44:05;95474.72;;;27.16;57.52
52957;BME280;38819;42.692;23.342;2023-07-16T00:46:31;95477.84;;;27.11;57.73
52957;BME280;38819;42.692;23.342;2023-07-16T00:48:56;95479.44;;;27.12;57.57
52957;BME280;38819;42.692;23.342;2023-07-16T00:51:24;95477.06;;;27.14;57.50
52957;BME280;38819;42.692;23.342;2023-07-16T00:53:51;95479.84;;;27.14;57.56
52957;BME280;38819;42.692;23.342;2023-07-16T00:56:17;95475.50;;;27.10;57.81
52957;BME280;38819;42.692;23.342;2023-07-16T00:58:45;95476.69;;;27.05;57.86
52957;BME280;38819;42.692;23.342;2023-07-16T01:01:11;95481.00;;;27.03;57.85
52957;BME280;38819;42.692;23.342;2023-07-16T01:03:37;95477.84;;;27.01;57.98
52957;BME280;38819;42.692;23.342;2023-07-16T01:06:04;95483.78;;;27.03;57.92
52957;BME280;38819;42.692;23.342;2023-07-16T01:08:47;95485.00;;;27.02;57.85
52957;BME280;38819;42.692;23.342;2023-07-16T01:11:14;95478.63;;;27.01;57.54
52957;BME280;38819;42.692;23.342;2023-07-16T01:13:41;95473.09;;;27.01;57.85
52957;BME280;38819;42.692;23.342;2023-07-16T01:16:18;95477.84;;;27.04;57.25
52957;BME280;38819;42.692;23.342;2023-07-16T01:18:44;95478.25;;;27.03;57.68
52957;BME280;38819;42.692;23.342;2023-07-16T01:21:10;95481.41;;;27.01;57.53
52957;BME280;38819;42.692;23.342;2023-07-16T01:23:44;95484.56;;;26.99;57.67
52957;BME280;38819;42.692;23.342;2023-07-16T01:31:38;95469.53;;;26.93;58.04
52957;BME280;38819;42.692;23.342;2023-07-16T01:34:05;95473.47;;;26.89;57.97
52957;BME280;38819;42.692;23.342;2023-07-16T01:36:31;95467.53;;;26.87;58.05
52957;BME280;38819;42.692;23.342;2023-07-16T01:38:59;95478.63;;;26.83;58.30
52957;BME280;38819;42.692;23.342;2023-07-16T01:41:24;95474.25;;;26.82;57.99
52957;BME280;38819;42.692;23.342;2023-07-16T01:43:50;95483.34;;;26.83;58.08
52957;BME280;38819;42.692;23.342;2023-07-16T01:46:15;95482.56;;;26.78;58.17
52957;BME280;38819;42.692;23.342;2023-07-16T01:48:41;95477.78;;;26.75;58.22
52957;BME280;38819;42.692;23.342;2023-07-16T01:51:06;95477.78;;;26.72;58.01
52957;BME280;38819;42.692;23.342;2023-07-16T01:53:32;95477.78;;;26.72;57.88
52957;BME280;38819;42.692;23.342;2023-07-16T01:55:57;95482.13;;;26.69;57.83
52957;BME280;38819;42.692;23.342;2023-07-16T01:58:23;95483.28;;;26.65;58.20
52957;BME280;38819;42.692;23.342;2023-07-16T02:00:50;95489.25;;;26.63;58.00
52957;BME280;38819;42.692;23.342;2023-07-16T02:03:15;95488.78;;;26.57;58.09
52957;BME280;38819;42.692;23.342;2023-07-16T02:05:41;95483.72;;;26.67;57.77
52957;BME280;38819;42.692;23.342;2023-07-16T02:08:06;95483.28;;;26.65;57.98
52957;BME280;38819;42.692;23.342;2023-07-16T02:10:32;95486.00;;;26.61;57.86
52957;BME280;38819;42.692;23.342;2023-07-16T02:12:57;95482.47;;;26.60;58.03
52957;BME280;38819;42.692;23.342;2023-07-16T02:15:23;95483.69;;;26.63;57.60
52957;BME280;38819;42.692;23.342;2023-07-16T02:17:48;95480.47;;;26.57;57.79
52957;BME280;38819;42.692;23.342;2023-07-16T02:20:14;95483.22;;;26.54;57.82
52957;BME280;38819;42.692;23.342;2023-07-16T02:22:39;95483.22;;;26.47;57.77
52957;BME280;38819;42.692;23.342;2023-07-16T02:25:05;95489.50;;;26.43;58.33
52957;BME280;38819;42.692;23.342;2023-07-16T02:27:31;95487.53;;;26.40;58.30
52957;BME280;38819;42.692;23.342;2023-07-16T02:29:56;95488.31;;;26.41;57.98
52957;BME280;38819;42.692;23.342;2023-07-16T02:32:22;95498.19;;;26.38;58.39
52957;BME280;38819;42.692;23.342;2023-07-16T02:34:48;95496.19;;;26.32;58.54
52957;BME280;38819;42.692;23.342;2023-07-16T02:37:14;95491.44;;;26.32;58.30
52957;BME280;38819;42.692;23.342;2023-07-16T02:39:41;95491.84;;;26.34;58.57
52957;BME280;38819;42.692;23.342;2023-07-16T02:42:07;95491.06;;;26.37;58.47
52957;BME280;38819;42.692;23.342;2023-07-16T02:44:32;95489.91;;;26.42;58.43
52957;BME280;38819;42.692;23.342;2023-07-16T02:46:57;95491.88;;;26.41;58.60
52957;BME280;38819;42.692;23.342;2023-07-16T02:49:23;95490.25;;;26.30;58.31
52957;BME280;38819;42.692;23.342;2023-07-16T02:51:48;95492.97;;;26.26;58.59
52957;BME280;38819;42.692;23.342;2023-07-16T02:54:14;95494.97;;;26.25;58.70
52957;BME280;38819;42.692;23.342;2023-07-16T02:56:39;95494.91;;;26.11;59.23
52957;BME280;38819;42.692;23.342;2023-07-16T02:59:05;95497.59;;;26.04;59.49
52957;BME280;38819;42.692;23.342;2023-07-16T03:01:30;95493.63;;;25.98;59.73
52957;BME280;38819;42.692;23.342;2023-07-16T03:03:56;95500.72;;;25.95;59.68
52957;BME280;38819;42.692;23.342;2023-07-16T03:06:21;95493.53;;;25.87;59.84
52957;BME280;38819;42.692;23.342;2023-07-16T03:08:47;95499.47;;;25.89;60.16
52957;BME280;38819;42.692;23.342;2023-07-16T03:11:13;95493.03;;;25.74;60.37
52957;BME280;38819;42.692;23.342;2023-07-16T03:13:38;95505.06;;;25.44;61.63
52957;BME280;38819;42.692;23.342;2023-07-16T03:16:04;95510.63;;;25.48;61.35
52957;BME280;38819;42.692;23.342;2023-07-16T03:18:30;95511.91;;;25.61;60.96
52957;BME280;38819;42.692;23.342;2023-07-16T03:20:59;95506.38;;;25.58;60.98
52957;BME280;38819;42.692;23.342;2023-07-16T03:23:24;95507.75;;;25.37;61.80
52957;BME280;38819;42.692;23.342;2023-07-16T03:25:51;95516.75;;;25.27;61.98
52957;BME280;38819;42.692;23.342;2023-07-16T03:28:17;95514.22;;;25.11;62.44
52957;BME280;38819;42.692;23.342;2023-07-16T03:30:50;95516.78;;;25.30;62.31
52957;BME280;38819;42.692;23.342;2023-07-16T03:33:16;95518.16;;;25.51;61.37
52957;BME280;38819;42.692;23.342;2023-07-16T03:35:48;95517.00;;;25.56;61.09
52957;BME280;38819;42.692;23.342;2023-07-16T03:38:14;95515.50;;;25.65;61.09
52957;BME280;38819;42.692;23.342;2023-07-16T03:40:42;95522.72;;;25.81;60.38
52957;BME280;38819;42.692;23.342;2023-07-16T03:43:08;95523.59;;;25.92;59.99
52957;BME280;38819;42.692;23.342;2023-07-16T03:45:33;95522.41;;;25.89;59.96
52957;BME280;38819;42.692;23.342;2023-07-16T03:47:59;95528.34;;;25.92;59.69
52957;BME280;38819;42.692;23.342;2023-07-16T03:50:24;95527.56;;;25.91;59.83
52957;BME280;38819;42.692;23.342;2023-07-16T03:52:50;95529.53;;;25.94;59.74
52957;BME280;38819;42.692;23.342;2023-07-16T03:55:15;95524.81;;;25.95;59.57
52957;BME280;38819;42.692;23.342;2023-07-16T03:57:42;95529.25;;;26.03;59.39
52957;BME280;38819;42.692;23.342;2023-07-16T04:00:08;95532.03;;;26.06;59.65
52957;BME280;38819;42.692;23.342;2023-07-16T04:02:35;95531.28;;;26.10;59.40
52957;BME280;38819;42.692;23.342;2023-07-16T04:05:01;95532.47;;;26.12;59.05
52957;BME280;38819;42.692;23.342;2023-07-16T04:07:27;95527.69;;;26.09;59.18
52957;BME280;38819;42.692;23.342;2023-07-16T04:09:52;95525.78;;;26.20;59.22
52957;BME280;38819;42.692;23.342;2023-07-16T04:12:17;95530.56;;;26.23;58.96
52957;BME280;38819;42.692;23.342;2023-07-16T04:14:43;95537.25;;;26.22;58.62
52957;BME280;38819;42.692;23.342;2023-07-16T04:17:09;95530.16;;;26.21;58.70
52957;BME280;38819;42.692;23.342;2023-07-16T04:19:34;95536.56;;;26.36;58.55
52957;BME280;38819;42.692;23.342;2023-07-16T04:22:00;95536.94;;;26.35;58.21
52957;BME280;38819;42.692;23.342;2023-07-16T04:24:25;95540.13;;;26.40;58.45
52957;BME280;38819;42.692;23.342;2023-07-16T04:26:54;95542.06;;;26.33;58.34
52957;BME280;38819;42.692;23.342;2023-07-16T04:29:19;95548.75;;;26.24;58.58
52957;BME280;38819;42.692;23.342;2023-07-16T04:31:45;95543.19;;;26.21;59.04
52957;BME280;38819;42.692;23.342;2023-07-16T04:34:10;95541.53;;;26.09;59.48
52957;BME280;38819;42.692;23.342;2023-07-16T04:36:36;95539.22;;;26.15;59.13
52957;BME280;38819;42.692;23.342;2023-07-16T04:39:01;95547.13;;;26.16;59.41
52957;BME280;38819;42.692;23.342;2023-07-16T04:41:27;95552.28;;;26.18;58.86
52957;BME280;38819;42.692;23.342;2023-07-16T04:43:52;95547.81;;;26.02;59.28
52957;BME280;38819;42.692;23.342;2023-07-16T04:46:18;95553.22;;;25.88;60.06
52957;BME280;38819;42.692;23.342;2023-07-16T04:48:43;95552.91;;;25.97;59.64
52957;BME280;38819;42.692;23.342;2023-07-16T04:51:08;95549.78;;;26.02;59.81
52957;BME280;38819;42.692;23.342;2023-07-16T04:53:34;95550.53;;;25.95;60.01
52957;BME280;38819;42.692;23.342;2023-07-16T04:55:59;95553.66;;;25.94;59.81
52957;BME280;38819;42.692;23.342;2023-07-16T04:58:25;95558.38;;;25.89;60.46
52957;BME280;38819;42.692;23.342;2023-07-16T05:00:50;95560.06;;;25.98;59.83
52957;BME280;38819;42.692;23.342;2023-07-16T05:03:16;95559.34;;;26.08;59.79
52957;BME280;38819;42.692;23.342;2023-07-16T05:05:41;95556.97;;;26.10;60.03
52957;BME280;38819;42.692;23.342;2023-07-16T05:08:07;95569.81;;;25.84;59.95
52957;BME280;38819;42.692;23.342;2023-07-16T05:10:33;95558.75;;;25.88;60.36
52957;BME280;38819;42.692;23.342;2023-07-16T05:12:58;95555.09;;;25.77;61.03
52957;BME280;38819;42.692;23.342;2023-07-16T05:15:24;95558.28;;;25.79;60.91
52957;BME280;38819;42.692;23.342;2023-07-16T05:17:49;95563.44;;;25.84;60.59
52957;BME280;38819;42.692;23.342;2023-07-16T05:20:15;95559.97;;;25.94;60.56
52957;BME280;38819;42.692;23.342;2023-07-16T05:22:40;95557.22;;;25.94;60.45
52957;BME280;38819;42.692;23.342;2023-07-16T05:25:06;95556.34;;;25.83;60.95
52957;BME280;38819;42.692;23.342;2023-07-16T05:27:31;95562.34;;;25.92;61.00
52957;BME280;38819;42.692;23.342;2023-07-16T05:29:57;95560.09;;;26.05;60.66
52957;BME280;38819;42.692;23.342;2023-07-16T05:32:22;95561.22;;;25.97;60.58
52957;BME280;38819;42.692;23.342;2023-07-16T05:34:48;95566.00;;;26.00;60.53
52957;BME280;38819;42.692;23.342;2023-07-16T05:37:13;95562.47;;;26.03;60.04
52957;BME280;38819;42.692;23.342;2023-07-16T05:39:39;95566.06;;;26.11;60.19
52957;BME280;38819;42.692;23.342;2023-07-16T05:42:05;95569.34;;;26.27;59.95
52957;BME280;38819;42.692;23.342;2023-07-16T05:44:30;95570.19;;;26.38;59.20
52957;BME280;38819;42.692;23.342;2023-07-16T05:46:56;95568.25;;;26.46;59.29
52957;BME280;38819;42.692;23.342;2023-07-16T05:49:21;95570.66;;;26.51;58.98
52957;BME280;38819;42.692;23.342;2023-07-16T05:51:46;95576.63;;;26.60;58.96
52957;BME280;38819;42.692;23.342;2023-07-16T05:54:12;95579.91;;;26.70;59.10
52957;BME280;38819;42.692;23.342;2023-07-16T05:56:38;95561.69;;;26.76;58.60
52957;BME280;38819;42.692;23.342;2023-07-16T05:59:03;95573.25;;;26.89;58.67
52957;BME280;38819;42.692;23.342;2023-07-16T06:01:28;95577.63;;;26.97;57.96
52957;BME280;38819;42.692;23.342;2023-07-16T06:03:54;95565.72;;;26.93;57.46
52957;BME280;38819;42.692;23.342;2023-07-16T06:06:19;95569.72;;;26.99;57.49
52957;BME280;38819;42.692;23.342;2023-07-16T06:08:45;95579.19;;;26.94;57.80
52957;BME280;38819;42.692;23.342;2023-07-16T06:11:12;95581.19;;;26.97;57.89
52957;BME280;38819;42.692;23.342;2023-07-16T06:13:37;95583.19;;;27.04;57.76
52957;BME280;38819;42.692;23.342;2023-07-16T06:16:03;95572.53;;;27.13;57.35
52957;BME280;38819;42.692;23.342;2023-07-16T06:18:28;95574.09;;;27.18;56.86
52957;BME280;38819;42.692;23.342;2023-07-16T06:20:53;95573.72;;;27.12;56.67
52957;BME280;38819;42.692;23.342;2023-07-16T06:23:20;95582.84;;;27.16;57.06
52957;BME280;38819;42.692;23.342;2023-07-16T06:25:45;95580.09;;;27.27;56.90
52957;BME280;38819;42.692;23.342;2023-07-16T06:28:14;95578.09;;;27.28;56.57
52957;BME280;38819;42.692;23.342;2023-07-16T06:30:39;95566.69;;;27.37;56.05
52957;BME280;38819;42.692;23.342;2023-07-16T06:33:04;95570.25;;;27.41;56.56
52957;BME280;38819;42.692;23.342;2023-07-16T06:35:30;95572.56;;;27.28;56.73
52957;BME280;38819;42.692;23.342;2023-07-16T06:37:55;95566.28;;;27.42;56.32
52957;BME280;38819;42.692;23.342;2023-07-16T06:40:21;95567.47;;;27.51;56.71
52957;BME280;38819;42.692;23.342;2023-07-16T06:42:46;95569.50;;;27.62;56.05
52957;BME280;38819;42.692;23.342;2023-07-16T06:45:11;95569.50;;;27.65;55.51
52957;BME280;38819;42.692;23.342;2023-07-16T06:47:37;95565.09;;;27.46;55.37
52957;BME280;38819;42.692;23.342;2023-07-16T06:50:02;95561.97;;;27.55;55.25
52957;BME280;38819;42.692;23.342;2023-07-16T06:52:28;95559.53;;;27.43;55.55
52957;BME280;38819;42.692;23.342;2023-07-16T06:54:54;95565.91;;;27.43;56.18
52957;BME280;38819;42.692;23.342;2023-07-16T06:57:20;95558.75;;;27.39;56.12
52957;BME280;38819;42.692;23.342;2023-07-16T06:59:46;95558.34;;;27.29;56.68
52957;BME280;38819;42.692;23.342;2023-07-16T07:02:11;95557.16;;;27.38;55.76
52957;BME280;38819;42.692;23.342;2023-07-16T07:04:37;95560.66;;;27.20;55.76
52957;BME280;38819;42.692;23.342;2023-07-16T07:07:03;95560.31;;;27.29;55.31
52957;BME280;38819;42.692;23.342;2023-07-16T07:09:28;95563.91;;;27.44;55.21
52957;BME280;38819;42.692;23.342;2023-07-16T07:11:54;95557.19;;;27.52;55.55
52957;BME280;38819;42.692;23.342;2023-07-16T07:14:19;95561.16;;;27.69;55.39
52957;BME280;38819;42.692;23.342;2023-07-16T07:16:44;95557.56;;;27.65;54.36
52957;BME280;38819;42.692;23.342;2023-07-16T07:19:10;95554.81;;;27.54;54.86
52957;BME280;38819;42.692;23.342;2023-07-16T07:21:35;95556.00;;;27.57;55.05
52957;BME280;38819;42.692;23.342;2023-07-16T07:24:01;95556.78;;;27.68;54.26
52957;BME280;38819;42.692;23.342;2023-07-16T07:26:27;95558.38;;;27.72;55.38
52957;BME280;38819;42.692;23.342;2023-07-16T07:28:52;95552.06;;;27.72;54.82
52957;BME280;38819;42.692;23.342;2023-07-16T07:31:18;95561.16;;;27.65;54.53
52957;BME280;38819;42.692;23.342;2023-07-16T07:33:43;95558.38;;;27.65;55.21
52957;BME280;38819;42.692;23.342;2023-07-16T07:36:09;95563.56;;;27.63;54.26
52957;BME280;38819;42.692;23.342;2023-07-16T07:38:34;95554.44;;;27.77;54.30
52957;BME280;38819;42.692;23.342;2023-07-16T07:41:01;95556.41;;;27.66;54.15
52957;BME280;38819;42.692;23.342;2023-07-16T07:43:26;95553.63;;;27.73;54.86
52957;BME280;38819;42.692;23.342;2023-07-16T07:45:52;95554.03;;;27.86;54.38
52957;BME280;38819;42.692;23.342;2023-07-16T07:48:17;95550.84;;;27.84;54.21
52957;BME280;38819;42.692;23.342;2023-07-16T07:50:43;95554.03;;;27.89;54.98
52957;BME280;38819;42.692;23.342;2023-07-16T07:53:08;95552.84;;;27.98;54.23
52957;BME280;38819;42.692;23.342;2023-07-16T07:55:34;95554.84;;;28.04;54.19
52957;BME280;38819;42.692;23.342;2023-07-16T07:58:02;95544.50;;;28.16;54.03
52957;BME280;38819;42.692;23.342;2023-07-16T08:00:28;95547.66;;;28.21;54.02
52957;BME280;38819;42.692;23.342;2023-07-16T08:02:53;95549.28;;;28.19;53.70
52957;BME280;38819;42.692;23.342;2023-07-16T08:05:19;95553.59;;;28.34;53.94
52957;BME280;38819;42.692;23.342;2023-07-16T08:07:44;95548.00;;;28.45;53.50
52957;BME280;38819;42.692;23.342;2023-07-16T08:10:10;95547.19;;;28.52;53.20
52957;BME280;38819;42.692;23.342;2023-07-16T08:12:35;95546.81;;;28.60;53.17
52957;BME280;38819;42.692;23.342;2023-07-16T08:15:01;95547.59;;;28.64;53.23
52957;BME280;38819;42.692;23.342;2023-07-16T08:17:26;95542.44;;;28.63;52.66
52957;BME280;38819;42.692;23.342;2023-07-16T08:19:53;95545.94;;;28.78;52.65
52957;BME280;38819;42.692;23.342;2023-07-16T08:22:18;95541.19;;;28.82;52.84
52957;BME280;38819;42.692;23.342;2023-07-16T08:24:44;95541.25;;;28.53;52.67
52957;BME280;38819;42.692;23.342;2023-07-16T08:27:10;95543.66;;;28.44;53.36
52957;BME280;38819;42.692;23.342;2023-07-16T08:29:36;95552.75;;;28.52;53.18
52957;BME280;38819;42.692;23.342;2023-07-16T08:32:02;95546.78;;;28.53;52.23
52957;BME280;38819;42.692;23.342;2023-07-16T08:34:28;95553.59;;;28.56;52.98
52957;BME280;38819;42.692;23.342;2023-07-16T08:36:53;95546.78;;;28.53;53.28
52957;BME280;38819;42.692;23.342;2023-07-16T08:39:19;95543.66;;;28.62;52.97
52957;BME280;38819;42.692;23.342;2023-07-16T08:41:45;95550.34;;;28.75;53.12
52957;BME280;38819;42.692;23.342;2023-07-16T08:44:12;95541.53;;;28.91;52.95
52957;BME280;38819;42.692;23.342;2023-07-16T08:46:38;95548.69;;;28.85;53.54
52957;BME280;38819;42.692;23.342;2023-07-16T08:49:07;95549.09;;;28.91;51.98
52957;BME280;38819;42.692;23.342;2023-07-16T08:51:34;95535.53;;;29.04;51.66
52957;BME280;38819;42.692;23.342;2023-07-16T08:54:00;95537.13;;;29.01;52.76
52957;BME280;38819;42.692;23.342;2023-07-16T08:56:26;95535.09;;;29.09;52.78
52957;BME280;38819;42.692;23.342;2023-07-16T08:58:54;95532.69;;;29.11;52.65
52957;BME280;38819;42.692;23.342;2023-07-16T09:01:21;95533.47;;;29.18;51.51
52957;BME280;38819;42.692;23.342;2023-07-16T09:03:46;95533.03;;;29.27;51.20
52957;BME280;38819;42.692;23.342;2023-07-16T09:06:12;95531.44;;;29.26;51.14
52957;BME280;38819;42.692;23.342;2023-07-16T09:08:37;95525.03;;;29.33;51.27
52957;BME280;38819;42.692;23.342;2023-07-16T09:11:02;95530.16;;;29.38;51.81
52957;BME280;38819;42.692;23.342;2023-07-16T09:13:29;95529.31;;;29.48;51.89
52957;BME280;38819;42.692;23.342;2023-07-16T09:15:56;95534.03;;;29.55;50.89
52957;BME280;38819;42.692;23.342;2023-07-16T09:18:24;95525.34;;;29.46;51.20
52957;BME280;38819;42.692;23.342;2023-07-16T09:20:57;95515.09;;;29.35;51.44
52957;BME280;38819;42.692;23.342;2023-07-16T09:23:26;95521.44;;;29.36;51.03
52957;BME280;38819;42.692;23.342;2023-07-16T09:25:53;95521.75;;;29.45;50.75
52957;BME280;38819;42.692;23.342;2023-07-16T09:28:19;95511.41;;;29.49;51.46
52957;BME280;38819;42.692;23.342;2023-07-16T09:30:46;95512.94;;;29.58;52.01
52957;BME280;38819;42.692;23.342;2023-07-16T09:33:16;95517.69;;;29.61;51.64
52957;BME280;38819;42.692;23.342;2023-07-16T09:35:42;95514.09;;;29.60;51.01
52957;BME280;38819;42.692;23.342;2023-07-16T09:38:08;95513.75;;;29.54;50.49
52957;BME280;38819;42.692;23.342;2023-07-16T09:40:38;95511.75;;;29.55;50.49
52957;BME280;38819;42.692;23.342;2023-07-16T09:43:04;95510.59;;;29.52;50.91
52957;BME280;38819;42.692;23.342;2023-07-16T09:45:30;95508.53;;;29.60;50.87
52957;BME280;38819;42.692;23.342;2023-07-16T09:47:56;95512.09;;;29.64;50.61
52957;BME280;38819;42.692;23.342;2023-07-16T09:50:23;95504.94;;;29.63;50.51
52957;BME280;38819;42.692;23.342;2023-07-16T09:52:51;95508.09;;;29.65;50.53
52957;BME280;38819;42.692;23.342;2023-07-16T09:55:18;95502.09;;;29.74;50.40
52957;BME280;38819;42.692;23.342;2023-07-16T09:57:47;95501.25;;;29.81;50.54
52957;BME280;38819;42.692;23.342;2023-07-16T10:00:14;95495.72;;;29.77;50.36
52957;BME280;38819;42.692;23.342;2023-07-16T10:02:41;95498.06;;;29.82;50.34
52957;BME280;38819;42.692;23.342;2023-07-16T10:05:17;95498.00;;;29.89;50.97
52957;BME280;38819;42.692;23.342;2023-07-16T10:07:49;95495.22;;;29.89;50.63
52957;BME280;38819;42.692;23.342;2023-07-16T10:10:15;95489.19;;;29.95;50.20
52957;BME280;38819;42.692;23.342;2023-07-16T10:12:43;95493.16;;;29.97;49.75
52957;BME280;38819;42.692;23.342;2023-07-16T10:15:27;95487.97;;;29.99;49.77
52957;BME280;38819;42.692;23.342;2023-07-16T10:17:54;95483.16;;;30.00;49.73
52957;BME280;38819;42.692;23.342;2023-07-16T10:20:33;95482.63;;;30.12;49.75
52957;BME280;38819;42.692;23.342;2023-07-16T10:23:10;95485.00;;;30.17;50.23
52957;BME280;38819;42.692;23.342;2023-07-16T10:25:37;95486.56;;;30.18;49.36
52957;BME280;38819;42.692;23.342;2023-07-16T10:28:03;95476.19;;;30.19;49.82
52957;BME280;38819;42.692;23.342;2023-07-16T10:30:30;95474.91;;;30.27;49.46
52957;BME280;38819;42.692;23.342;2023-07-16T10:32:56;95475.28;;;30.33;49.63
52957;BME280;38819;42.692;23.342;2023-07-16T10:35:21;95478.78;;;30.40;49.24
52957;BME280;38819;42.692;23.342;2023-07-16T10:37:47;95469.53;;;30.47;49.65
52957;BME280;38819;42.692;23.342;2023-07-16T10:40:13;95474.22;;;30.57;50.65
52957;BME280;38819;42.692;23.342;2023-07-16T10:42:43;95473.38;;;30.60;50.30
52957;BME280;38819;42.692;23.342;2023-07-16T10:45:09;95469.69;;;30.67;49.29
52957;BME280;38819;42.692;23.342;2023-07-16T10:47:37;95468.41;;;30.75;49.53
52957;BME280;38819;42.692;23.342;2023-07-16T10:50:05;95467.91;;;30.84;49.83
52957;BME280;38819;42.692;23.342;2023-07-16T10:52:31;95468.13;;;30.97;49.06
52957;BME280;38819;42.692;23.342;2023-07-16T10:54:57;95466.25;;;30.87;49.14
52957;BME280;38819;42.692;23.342;2023-07-16T10:57:24;95461.44;;;30.91;48.30
52957;BME280;38819;42.692;23.342;2023-07-16T10:59:57;95457.41;;;30.92;48.31
52957;BME280;38819;42.692;23.342;2023-07-16T11:02:24;95460.69;;;30.87;47.87
52957;BME280;38819;42.692;23.342;2023-07-16T11:04:50;95452.25;;;30.90;48.01
52957;BME280;38819;42.692;23.342;2023-07-16T11:07:18;95446.28;;;30.92;47.85
52957;BME280;38819;42.692;23.342;2023-07-16T11:09:52;95446.63;;;30.94;48.45
52957;BME280;38819;42.692;23.342;2023-07-16T11:12:19;95449.41;;;30.94;46.03
52957;BME280;38819;42.692;23.342;2023-07-16T11:14:47;95450.22;;;30.98;46.56
52957;BME280;38819;42.692;23.342;2023-07-16T11:17:13;95445.75;;;31.04;46.05
52957;BME280;38819;42.692;23.342;2023-07-16T11:19:40;95451.34;;;31.00;45.48
52957;BME280;38819;42.692;23.342;2023-07-16T11:22:07;95449.31;;;31.05;45.32
52957;BME280;38819;42.692;23.342;2023-07-16T11:24:51;95435.38;;;31.05;45.83
52957;BME280;38819;42.692;23.342;2023-07-16T11:27:27;95434.59;;;31.04;45.33
52957;BME280;38819;42.692;23.342;2023-07-16T11:29:55;95434.19;;;31.02;45.63
52957;BME280;38819;42.692;23.342;2023-07-16T11:32:43;95436.91;;;31.09;45.17
52957;BME280;38819;42.692;23.342;2023-07-16T11:35:14;95427.56;;;31.19;45.27
52957;BME280;38819;42.692;23.342;2023-07-16T11:37:40;95435.03;;;31.26;45.11
52957;BME280;38819;42.692;23.342;2023-07-16T11:40:07;95425.03;;;31.29;45.86
52957;BME280;38819;42.692;23.342;2023-07-16T11:42:35;95435.34;;;31.32;45.45
52957;BME280;38819;42.692;23.342;2023-07-16T11:45:02;95428.13;;;31.34;44.27
52957;BME280;38819;42.692;23.342;2023-07-16T11:47:27;95428.44;;;31.40;43.70
52957;BME280;38819;42.692;23.342;2023-07-16T11:49:53;95425.09;;;31.49;43.85
52957;BME280;38819;42.692;23.342;2023-07-16T11:52:27;95425.31;;;31.62;43.73
52957;BME280;38819;42.692;23.342;2023-07-16T11:54:53;95419.59;;;31.69;43.33
52957;BME280;38819;42.692;23.342;2023-07-16T11:57:19;95428.31;;;31.71;44.72
52957;BME280;38819;42.692;23.342;2023-07-16T11:59:44;95420.13;;;31.84;44.07
52957;BME280;38819;42.692;23.342;2023-07-16T12:02:10;95428.09;;;31.85;42.10
52957;BME280;38819;42.692;23.342;2023-07-16T12:04:35;95417.75;;;31.82;42.80
52957;BME280;38819;42.692;23.342;2023-07-16T12:07:02;95414.28;;;31.98;41.26
52957;BME280;38819;42.692;23.342;2023-07-16T12:09:28;95414.28;;;31.98;41.78
52957;BME280;38819;42.692;23.342;2023-07-16T12:11:53;95414.72;;;31.97;41.10
52957;BME280;38819;42.692;23.342;2023-07-16T12:14:19;95412.00;;;31.93;40.75
52957;BME280;38819;42.692;23.342;2023-07-16T12:16:44;95411.56;;;31.94;41.16
52957;BME280;38819;42.692;23.342;2023-07-16T12:19:10;95412.06;;;31.89;42.13
52957;BME280;38819;42.692;23.342;2023-07-16T12:21:36;95409.56;;;31.95;41.15
52957;BME280;38819;42.692;23.342;2023-07-16T12:24:01;95406.94;;;31.84;41.08
52957;BME280;38819;42.692;23.342;2023-07-16T12:26:27;95410.47;;;31.88;41.07
52957;BME280;38819;42.692;23.342;2023-07-16T12:28:53;95400.72;;;31.76;41.08
52957;BME280;38819;42.692;23.342;2023-07-16T12:31:18;95408.19;;;31.83;40.38
52957;BME280;38819;42.692;23.342;2023-07-16T12:33:45;95399.38;;;31.85;40.35
52957;BME280;38819;42.692;23.342;2023-07-16T12:36:11;95402.16;;;31.85;39.90
52957;BME280;38819;42.692;23.342;2023-07-16T12:38:38;95397.59;;;31.94;40.27
52957;BME280;38819;42.692;23.342;2023-07-16T12:41:04;95397.88;;;32.00;39.33
52957;BME280;38819;42.692;23.342;2023-07-16T12:43:29;95394.91;;;32.11;39.42
52957;BME280;38819;42.692;23.342;2023-07-16T12:45:57;95388.03;;;32.16;39.95
52957;BME280;38819;42.692;23.342;2023-07-16T12:48:22;95384.66;;;32.24;39.19
52957;BME280;38819;42.692;23.342;2023-07-16T12:50:48;95384.94;;;32.30;38.95